sensor_id;sensor_type;location;lat;lon;timestamp;P1;durP1;ratioP1;P2;durP2;ratioP2
74223;SDS011;62585;49.706;18.216;2022-08-07T00:01:05;1.95;;;1.30;;
74223;SDS011;62585;49.706;18.216;2022-08-07T00:03:32;2.67;;;1.63;;
74223;SDS011;62585;49.706;18.216;2022-08-07T00:05:58;2.35;;;1.85;;
74223;SDS011;62585;49.706;18.216;2022-08-07T00:08:24;2.25;;;1.40;;
74223;SDS011;62585;49.706;18.216;2022-08-07T00:10:50;2.30;;;1.50;;
74223;SDS011;62585;49.706;18.216;2022-08-07T00:13:18;2.50;;;1.58;;
74223;SDS011;62585;49.706;18.216;2022-08-07T00:15:45;2.47;;;1.70;;
74223;SDS011;62585;49.706;18.216;2022-08-07T00:18:12;2.05;;;1.48;;
74223;SDS011;62585;49.706;18.216;2022-08-07T00:20:39;1.88;;;1.17;;
74223;SDS011;62585;49.706;18.216;2022-08-07T00:23:05;2.15;;;1.40;;
74223;SDS011;62585;49.706;18.216;2022-08-07T00:25:31;1.80;;;1.60;;
74223;SDS011;62585;49.706;18.216;2022-08-07T00:27:57;1.88;;;1.58;;
74223;SDS011;62585;49.706;18.216;2022-08-07T00:30:23;2.60;;;1.48;;
74223;SDS011;62585;49.706;18.216;2022-08-07T00:32:49;2.08;;;1.42;;
74223;SDS011;62585;49.706;18.216;2022-08-07T00:35:16;2.30;;;1.48;;
74223;SDS011;62585;49.706;18.216;2022-08-07T00:37:42;1.70;;;1.10;;
74223;SDS011;62585;49.706;18.216;2022-08-07T00:40:08;3.47;;;1.38;;
74223;SDS011;62585;49.706;18.216;2022-08-07T00:42:35;1.80;;;1.35;;
74223;SDS011;62585;49.706;18.216;2022-08-07T00:45:01;2.78;;;1.42;;
74223;SDS011;62585;49.706;18.216;2022-08-07T00:47:27;1.83;;;1.58;;
74223;SDS011;62585;49.706;18.216;2022-08-07T00:49:52;3.25;;;1.60;;
74223;SDS011;62585;49.706;18.216;2022-08-07T00:52:18;2.35;;;1.33;;
74223;SDS011;62585;49.706;18.216;2022-08-07T00:54:44;2.95;;;1.63;;
74223;SDS011;62585;49.706;18.216;2022-08-07T00:57:11;1.75;;;1.20;;
74223;SDS011;62585;49.706;18.216;2022-08-07T00:59:38;2.00;;;1.45;;
74223;SDS011;62585;49.706;18.216;2022-08-07T01:02:05;2.65;;;1.70;;
74223;SDS011;62585;49.706;18.216;2022-08-07T01:04:31;1.63;;;1.08;;
74223;SDS011;62585;49.706;18.216;2022-08-07T01:06:57;2.13;;;1.40;;
74223;SDS011;62585;49.706;18.216;2022-08-07T01:09:23;2.55;;;1.63;;
74223;SDS011;62585;49.706;18.216;2022-08-07T01:11:50;2.08;;;1.27;;
74223;SDS011;62585;49.706;18.216;2022-08-07T01:14:17;1.95;;;1.27;;
74223;SDS011;62585;49.706;18.216;2022-08-07T01:16:44;1.65;;;1.42;;
74223;SDS011;62585;49.706;18.216;2022-08-07T01:19:10;2.42;;;1.90;;
74223;SDS011;62585;49.706;18.216;2022-08-07T01:21:36;1.80;;;1.25;;
74223;SDS011;62585;49.706;18.216;2022-08-07T01:24:02;1.85;;;1.52;;
74223;SDS011;62585;49.706;18.216;2022-08-07T01:26:28;2.47;;;1.52;;
74223;SDS011;62585;49.706;18.216;2022-08-07T01:28:54;3.25;;;1.52;;
74223;SDS011;62585;49.706;18.216;2022-08-07T01:31:20;2.72;;;1.65;;
74223;SDS011;62585;49.706;18.216;2022-08-07T01:33:52;1.60;;;1.10;;
74223;SDS011;62585;49.706;18.216;2022-08-07T01:36:18;2.88;;;1.17;;
74223;SDS011;62585;49.706;18.216;2022-08-07T01:38:44;1.52;;;1.15;;
74223;SDS011;62585;49.706;18.216;2022-08-07T01:41:10;1.58;;;1.20;;
74223;SDS011;62585;49.706;18.216;2022-08-07T01:43:36;3.33;;;1.50;;
74223;SDS011;62585;49.706;18.216;2022-08-07T01:46:02;2.13;;;1.45;;
74223;SDS011;62585;49.706;18.216;2022-08-07T01:48:28;2.10;;;1.58;;
74223;SDS011;62585;49.706;18.216;2022-08-07T01:51:03;2.25;;;1.60;;
74223;SDS011;62585;49.706;18.216;2022-08-07T01:53:32;1.73;;;1.20;;
74223;SDS011;62585;49.706;18.216;2022-08-07T01:56:05;2.58;;;1.38;;
74223;SDS011;62585;49.706;18.216;2022-08-07T01:58:34;1.63;;;1.25;;
74223;SDS011;62585;49.706;18.216;2022-08-07T02:01:06;4.80;;;1.67;;
74223;SDS011;62585;49.706;18.216;2022-08-07T02:03:36;1.48;;;1.10;;
74223;SDS011;62585;49.706;18.216;2022-08-07T02:06:06;3.83;;;1.45;;
74223;SDS011;62585;49.706;18.216;2022-08-07T02:08:35;1.42;;;1.17;;
74223;SDS011;62585;49.706;18.216;2022-08-07T02:11:06;2.03;;;1.60;;
74223;SDS011;62585;49.706;18.216;2022-08-07T02:13:33;3.08;;;1.45;;
74223;SDS011;62585;49.706;18.216;2022-08-07T02:16:01;1.83;;;1.30;;
74223;SDS011;62585;49.706;18.216;2022-08-07T02:18:29;1.73;;;1.25;;
74223;SDS011;62585;49.706;18.216;2022-08-07T02:20:56;2.10;;;1.70;;
74223;SDS011;62585;49.706;18.216;2022-08-07T02:23:24;2.03;;;1.27;;
74223;SDS011;62585;49.706;18.216;2022-08-07T02:25:54;1.35;;;1.17;;
74223;SDS011;62585;49.706;18.216;2022-08-07T02:28:22;1.90;;;1.20;;
74223;SDS011;62585;49.706;18.216;2022-08-07T02:30:51;2.45;;;1.00;;
74223;SDS011;62585;49.706;18.216;2022-08-07T02:33:18;2.88;;;1.20;;
74223;SDS011;62585;49.706;18.216;2022-08-07T02:35:44;1.98;;;1.23;;
74223;SDS011;62585;49.706;18.216;2022-08-07T02:38:13;1.67;;;1.10;;
74223;SDS011;62585;49.706;18.216;2022-08-07T02:40:40;2.45;;;1.38;;
74223;SDS011;62585;49.706;18.216;2022-08-07T02:43:08;1.83;;;1.30;;
74223;SDS011;62585;49.706;18.216;2022-08-07T02:45:35;3.20;;;1.35;;
74223;SDS011;62585;49.706;18.216;2022-08-07T02:48:04;2.75;;;1.15;;
74223;SDS011;62585;49.706;18.216;2022-08-07T02:50:35;1.85;;;1.27;;
74223;SDS011;62585;49.706;18.216;2022-08-07T02:53:07;2.90;;;1.38;;
74223;SDS011;62585;49.706;18.216;2022-08-07T02:55:36;1.80;;;1.42;;
74223;SDS011;62585;49.706;18.216;2022-08-07T02:58:09;1.75;;;1.38;;
74223;SDS011;62585;49.706;18.216;2022-08-07T03:00:37;1.30;;;1.10;;
74223;SDS011;62585;49.706;18.216;2022-08-07T03:03:05;1.83;;;1.13;;
74223;SDS011;62585;49.706;18.216;2022-08-07T03:05:32;1.42;;;0.98;;
74223;SDS011;62585;49.706;18.216;2022-08-07T03:08:00;3.42;;;1.13;;
74223;SDS011;62585;49.706;18.216;2022-08-07T03:10:27;2.50;;;1.25;;
74223;SDS011;62585;49.706;18.216;2022-08-07T03:12:53;2.67;;;1.70;;
74223;SDS011;62585;49.706;18.216;2022-08-07T03:15:19;1.50;;;1.35;;
74223;SDS011;62585;49.706;18.216;2022-08-07T03:17:45;1.75;;;1.05;;
74223;SDS011;62585;49.706;18.216;2022-08-07T03:20:11;1.27;;;1.10;;
74223;SDS011;62585;49.706;18.216;2022-08-07T03:22:37;1.77;;;1.10;;
74223;SDS011;62585;49.706;18.216;2022-08-07T03:25:06;1.55;;;1.15;;
74223;SDS011;62585;49.706;18.216;2022-08-07T03:27:32;2.10;;;1.30;;
74223;SDS011;62585;49.706;18.216;2022-08-07T03:29:58;1.75;;;1.15;;
74223;SDS011;62585;49.706;18.216;2022-08-07T03:32:26;1.92;;;1.50;;
74223;SDS011;62585;49.706;18.216;2022-08-07T03:34:59;2.13;;;1.40;;
74223;SDS011;62585;49.706;18.216;2022-08-07T03:37:27;3.97;;;1.30;;
74223;SDS011;62585;49.706;18.216;2022-08-07T03:39:54;1.65;;;1.30;;
74223;SDS011;62585;49.706;18.216;2022-08-07T03:42:21;1.67;;;1.23;;
74223;SDS011;62585;49.706;18.216;2022-08-07T03:44:47;1.80;;;1.05;;
74223;SDS011;62585;49.706;18.216;2022-08-07T03:47:13;1.83;;;1.17;;
74223;SDS011;62585;49.706;18.216;2022-08-07T03:49:41;1.95;;;1.42;;
74223;SDS011;62585;49.706;18.216;2022-08-07T03:52:08;1.30;;;1.10;;
74223;SDS011;62585;49.706;18.216;2022-08-07T03:54:35;1.80;;;1.10;;
74223;SDS011;62585;49.706;18.216;2022-08-07T03:57:02;1.80;;;1.15;;
74223;SDS011;62585;49.706;18.216;2022-08-07T03:59:29;1.30;;;1.05;;
74223;SDS011;62585;49.706;18.216;2022-08-07T04:04:22;1.95;;;1.20;;
74223;SDS011;62585;49.706;18.216;2022-08-07T04:06:48;1.48;;;0.98;;
74223;SDS011;62585;49.706;18.216;2022-08-07T04:09:15;1.73;;;1.30;;
74223;SDS011;62585;49.706;18.216;2022-08-07T04:11:42;1.13;;;0.98;;
74223;SDS011;62585;49.706;18.216;2022-08-07T04:14:09;1.05;;;0.98;;
74223;SDS011;62585;49.706;18.216;2022-08-07T04:16:35;1.58;;;1.10;;
74223;SDS011;62585;49.706;18.216;2022-08-07T04:19:02;1.10;;;0.98;;
74223;SDS011;62585;49.706;18.216;2022-08-07T04:21:29;1.83;;;1.17;;
74223;SDS011;62585;49.706;18.216;2022-08-07T04:23:55;2.22;;;1.27;;
74223;SDS011;62585;49.706;18.216;2022-08-07T04:26:22;3.88;;;1.50;;
74223;SDS011;62585;49.706;18.216;2022-08-07T04:28:47;1.83;;;1.15;;
74223;SDS011;62585;49.706;18.216;2022-08-07T04:31:13;1.83;;;1.40;;
74223;SDS011;62585;49.706;18.216;2022-08-07T04:36:06;1.25;;;0.95;;
74223;SDS011;62585;49.706;18.216;2022-08-07T04:38:33;2.10;;;1.40;;
74223;SDS011;62585;49.706;18.216;2022-08-07T04:41:00;1.40;;;0.95;;
74223;SDS011;62585;49.706;18.216;2022-08-07T04:43:27;1.40;;;1.13;;
74223;SDS011;62585;49.706;18.216;2022-08-07T04:46:06;1.20;;;0.93;;
74223;SDS011;62585;49.706;18.216;2022-08-07T04:51:28;2.35;;;1.13;;
74223;SDS011;62585;49.706;18.216;2022-08-07T04:54:12;2.08;;;1.17;;
74223;SDS011;62585;49.706;18.216;2022-08-07T04:56:50;1.63;;;1.27;;
74223;SDS011;62585;49.706;18.216;2022-08-07T05:02:03;1.50;;;1.25;;
74223;SDS011;62585;49.706;18.216;2022-08-07T05:05:39;1.75;;;1.20;;
74223;SDS011;62585;49.706;18.216;2022-08-07T05:10:38;1.63;;;1.10;;
74223;SDS011;62585;49.706;18.216;2022-08-07T05:13:15;2.08;;;1.20;;
74223;SDS011;62585;49.706;18.216;2022-08-07T05:15:44;1.35;;;1.02;;
74223;SDS011;62585;49.706;18.216;2022-08-07T05:18:16;2.45;;;1.20;;
74223;SDS011;62585;49.706;18.216;2022-08-07T05:20:48;1.38;;;1.00;;
74223;SDS011;62585;49.706;18.216;2022-08-07T05:23:29;3.05;;;1.13;;
74223;SDS011;62585;49.706;18.216;2022-08-07T05:25:58;2.53;;;1.40;;
74223;SDS011;62585;49.706;18.216;2022-08-07T05:28:25;1.73;;;1.33;;
74223;SDS011;62585;49.706;18.216;2022-08-07T05:30:51;1.70;;;0.90;;
74223;SDS011;62585;49.706;18.216;2022-08-07T05:33:22;1.75;;;1.30;;
74223;SDS011;62585;49.706;18.216;2022-08-07T05:35:51;2.35;;;0.90;;
74223;SDS011;62585;49.706;18.216;2022-08-07T05:38:18;1.90;;;1.10;;
74223;SDS011;62585;49.706;18.216;2022-08-07T05:40:46;1.20;;;1.02;;
74223;SDS011;62585;49.706;18.216;2022-08-07T05:43:12;2.47;;;1.65;;
74223;SDS011;62585;49.706;18.216;2022-08-07T05:45:39;1.52;;;1.17;;
74223;SDS011;62585;49.706;18.216;2022-08-07T05:48:07;2.42;;;1.10;;
74223;SDS011;62585;49.706;18.216;2022-08-07T05:50:32;1.80;;;1.08;;
74223;SDS011;62585;49.706;18.216;2022-08-07T05:53:00;1.70;;;1.05;;
74223;SDS011;62585;49.706;18.216;2022-08-07T05:55:26;1.25;;;0.90;;
74223;SDS011;62585;49.706;18.216;2022-08-07T05:57:53;1.15;;;1.00;;
74223;SDS011;62585;49.706;18.216;2022-08-07T06:00:21;1.83;;;1.10;;
74223;SDS011;62585;49.706;18.216;2022-08-07T06:02:49;1.75;;;1.08;;
74223;SDS011;62585;49.706;18.216;2022-08-07T06:05:17;1.50;;;1.20;;
74223;SDS011;62585;49.706;18.216;2022-08-07T06:07:46;1.65;;;1.10;;
74223;SDS011;62585;49.706;18.216;2022-08-07T06:10:12;3.35;;;1.30;;
74223;SDS011;62585;49.706;18.216;2022-08-07T06:12:38;1.63;;;1.10;;
74223;SDS011;62585;49.706;18.216;2022-08-07T06:15:03;2.13;;;1.30;;
74223;SDS011;62585;49.706;18.216;2022-08-07T06:17:30;2.00;;;1.40;;
74223;SDS011;62585;49.706;18.216;2022-08-07T06:19:56;2.42;;;1.52;;
74223;SDS011;62585;49.706;18.216;2022-08-07T06:22:22;1.65;;;1.20;;
74223;SDS011;62585;49.706;18.216;2022-08-07T06:27:21;1.17;;;0.98;;
74223;SDS011;62585;49.706;18.216;2022-08-07T06:29:48;1.40;;;0.90;;
74223;SDS011;62585;49.706;18.216;2022-08-07T06:32:14;4.20;;;1.85;;
74223;SDS011;62585;49.706;18.216;2022-08-07T06:34:39;1.95;;;1.40;;
74223;SDS011;62585;49.706;18.216;2022-08-07T06:37:05;1.10;;;0.90;;
74223;SDS011;62585;49.706;18.216;2022-08-07T06:39:33;1.35;;;1.17;;
74223;SDS011;62585;49.706;18.216;2022-08-07T06:42:03;1.52;;;1.15;;
74223;SDS011;62585;49.706;18.216;2022-08-07T06:44:31;1.58;;;1.17;;
74223;SDS011;62585;49.706;18.216;2022-08-07T06:46:58;1.48;;;0.93;;
74223;SDS011;62585;49.706;18.216;2022-08-07T06:49:24;1.25;;;0.88;;
74223;SDS011;62585;49.706;18.216;2022-08-07T06:51:50;4.03;;;0.95;;
74223;SDS011;62585;49.706;18.216;2022-08-07T06:54:18;1.55;;;1.05;;
74223;SDS011;62585;49.706;18.216;2022-08-07T06:56:45;1.58;;;1.17;;
74223;SDS011;62585;49.706;18.216;2022-08-07T06:59:19;1.67;;;1.00;;
74223;SDS011;62585;49.706;18.216;2022-08-07T07:01:46;1.25;;;0.88;;
74223;SDS011;62585;49.706;18.216;2022-08-07T07:04:13;1.55;;;1.05;;
74223;SDS011;62585;49.706;18.216;2022-08-07T07:06:40;2.10;;;1.35;;
74223;SDS011;62585;49.706;18.216;2022-08-07T07:11:49;1.48;;;1.00;;
74223;SDS011;62585;49.706;18.216;2022-08-07T07:14:30;2.17;;;1.13;;
74223;SDS011;62585;49.706;18.216;2022-08-07T07:17:02;3.15;;;1.10;;
74223;SDS011;62585;49.706;18.216;2022-08-07T07:19:35;1.30;;;0.90;;
74223;SDS011;62585;49.706;18.216;2022-08-07T07:22:05;3.17;;;1.13;;
74223;SDS011;62585;49.706;18.216;2022-08-07T07:24:33;2.35;;;1.35;;
74223;SDS011;62585;49.706;18.216;2022-08-07T07:26:59;1.58;;;1.17;;
74223;SDS011;62585;49.706;18.216;2022-08-07T07:29:26;1.63;;;1.20;;
74223;SDS011;62585;49.706;18.216;2022-08-07T07:31:57;1.75;;;0.98;;
74223;SDS011;62585;49.706;18.216;2022-08-07T07:34:28;2.28;;;1.13;;
74223;SDS011;62585;49.706;18.216;2022-08-07T07:36:56;1.60;;;1.30;;
74223;SDS011;62585;49.706;18.216;2022-08-07T07:39:25;3.10;;;1.60;;
74223;SDS011;62585;49.706;18.216;2022-08-07T07:41:53;1.55;;;1.27;;
74223;SDS011;62585;49.706;18.216;2022-08-07T07:44:20;1.55;;;1.10;;
74223;SDS011;62585;49.706;18.216;2022-08-07T07:46:48;1.63;;;1.23;;
74223;SDS011;62585;49.706;18.216;2022-08-07T07:49:15;3.05;;;1.30;;
74223;SDS011;62585;49.706;18.216;2022-08-07T07:51:43;1.38;;;1.10;;
74223;SDS011;62585;49.706;18.216;2022-08-07T07:54:11;1.60;;;1.08;;
74223;SDS011;62585;49.706;18.216;2022-08-07T07:56:38;1.58;;;1.17;;
74223;SDS011;62585;49.706;18.216;2022-08-07T07:59:05;1.73;;;1.20;;
74223;SDS011;62585;49.706;18.216;2022-08-07T08:01:32;1.55;;;1.15;;
74223;SDS011;62585;49.706;18.216;2022-08-07T08:04:02;2.05;;;1.58;;
74223;SDS011;62585;49.706;18.216;2022-08-07T08:06:31;1.90;;;1.20;;
74223;SDS011;62585;49.706;18.216;2022-08-07T08:08:59;1.58;;;1.25;;
74223;SDS011;62585;49.706;18.216;2022-08-07T08:11:27;2.00;;;1.42;;
74223;SDS011;62585;49.706;18.216;2022-08-07T08:13:54;3.25;;;1.40;;
74223;SDS011;62585;49.706;18.216;2022-08-07T08:16:19;2.22;;;1.30;;
74223;SDS011;62585;49.706;18.216;2022-08-07T08:18:50;2.10;;;1.40;;
74223;SDS011;62585;49.706;18.216;2022-08-07T08:21:19;2.10;;;1.55;;
74223;SDS011;62585;49.706;18.216;2022-08-07T08:24:04;1.60;;;1.33;;
74223;SDS011;62585;49.706;18.216;2022-08-07T08:26:52;1.92;;;1.20;;
74223;SDS011;62585;49.706;18.216;2022-08-07T08:29:42;2.03;;;1.30;;
74223;SDS011;62585;49.706;18.216;2022-08-07T08:32:11;2.15;;;1.35;;
74223;SDS011;62585;49.706;18.216;2022-08-07T08:34:42;2.00;;;1.50;;
74223;SDS011;62585;49.706;18.216;2022-08-07T08:37:10;1.92;;;1.30;;
74223;SDS011;62585;49.706;18.216;2022-08-07T08:39:37;1.80;;;1.30;;
74223;SDS011;62585;49.706;18.216;2022-08-07T08:42:10;2.08;;;1.58;;
74223;SDS011;62585;49.706;18.216;2022-08-07T08:44:57;1.80;;;1.42;;
74223;SDS011;62585;49.706;18.216;2022-08-07T08:47:32;1.90;;;1.45;;
74223;SDS011;62585;49.706;18.216;2022-08-07T08:52:46;3.00;;;1.85;;
74223;SDS011;62585;49.706;18.216;2022-08-07T08:55:34;3.10;;;1.80;;
74223;SDS011;62585;49.706;18.216;2022-08-07T08:58:16;2.22;;;1.80;;
74223;SDS011;62585;49.706;18.216;2022-08-07T09:00:53;3.58;;;1.90;;
74223;SDS011;62585;49.706;18.216;2022-08-07T09:03:24;2.67;;;1.90;;
74223;SDS011;62585;49.706;18.216;2022-08-07T09:06:17;1.88;;;1.50;;
74223;SDS011;62585;49.706;18.216;2022-08-07T09:09:11;2.78;;;1.98;;
74223;SDS011;62585;49.706;18.216;2022-08-07T09:12:03;2.67;;;2.33;;
74223;SDS011;62585;49.706;18.216;2022-08-07T09:26:21;2.67;;;1.95;;
74223;SDS011;62585;49.706;18.216;2022-08-07T09:28:58;3.85;;;1.90;;
74223;SDS011;62585;49.706;18.216;2022-08-07T09:34:07;2.10;;;1.90;;
74223;SDS011;62585;49.706;18.216;2022-08-07T09:36:58;3.08;;;2.00;;
74223;SDS011;62585;49.706;18.216;2022-08-07T09:51:43;2.08;;;1.80;;
74223;SDS011;62585;49.706;18.216;2022-08-07T09:54:28;3.13;;;2.30;;
74223;SDS011;62585;49.706;18.216;2022-08-07T10:02:24;2.17;;;1.60;;
74223;SDS011;62585;49.706;18.216;2022-08-07T10:14:07;2.05;;;1.52;;
74223;SDS011;62585;49.706;18.216;2022-08-07T10:22:30;2.67;;;1.90;;
74223;SDS011;62585;49.706;18.216;2022-08-07T10:33:42;2.20;;;1.73;;
74223;SDS011;62585;49.706;18.216;2022-08-07T10:36:32;2.80;;;1.70;;
74223;SDS011;62585;49.706;18.216;2022-08-07T10:50:56;2.53;;;1.90;;
74223;SDS011;62585;49.706;18.216;2022-08-07T10:53:33;2.60;;;1.75;;
74223;SDS011;62585;49.706;18.216;2022-08-07T10:56:24;2.72;;;1.80;;
74223;SDS011;62585;49.706;18.216;2022-08-07T11:02:01;3.03;;;1.80;;
74223;SDS011;62585;49.706;18.216;2022-08-07T11:07:49;5.35;;;1.90;;
74223;SDS011;62585;49.706;18.216;2022-08-07T11:10:24;1.65;;;1.45;;
74223;SDS011;62585;49.706;18.216;2022-08-07T11:13:01;2.17;;;1.80;;
74223;SDS011;62585;49.706;18.216;2022-08-07T11:15:33;2.53;;;1.63;;
74223;SDS011;62585;49.706;18.216;2022-08-07T11:18:17;1.73;;;1.40;;
74223;SDS011;62585;49.706;18.216;2022-08-07T11:20:55;2.30;;;1.73;;
74223;SDS011;62585;49.706;18.216;2022-08-07T11:23:40;1.90;;;1.65;;
74223;SDS011;62585;49.706;18.216;2022-08-07T11:29:02;2.10;;;1.88;;
74223;SDS011;62585;49.706;18.216;2022-08-07T11:34:30;3.38;;;1.83;;
74223;SDS011;62585;49.706;18.216;2022-08-07T11:37:10;2.17;;;1.67;;
74223;SDS011;62585;49.706;18.216;2022-08-07T11:39:53;3.15;;;1.40;;
74223;SDS011;62585;49.706;18.216;2022-08-07T11:42:45;1.67;;;1.45;;
74223;SDS011;62585;49.706;18.216;2022-08-07T11:48:23;1.55;;;1.45;;
74223;SDS011;62585;49.706;18.216;2022-08-07T12:10:24;1.60;;;1.42;;
74223;SDS011;62585;49.706;18.216;2022-08-07T12:15:51;1.48;;;1.38;;
74223;SDS011;62585;49.706;18.216;2022-08-07T12:18:26;3.92;;;1.55;;
74223;SDS011;62585;49.706;18.216;2022-08-07T12:23:51;2.28;;;1.60;;
74223;SDS011;62585;49.706;18.216;2022-08-07T12:29:31;1.75;;;1.52;;
74223;SDS011;62585;49.706;18.216;2022-08-07T12:32:11;1.98;;;1.65;;
74223;SDS011;62585;49.706;18.216;2022-08-07T12:34:57;2.00;;;1.80;;
74223;SDS011;62585;49.706;18.216;2022-08-07T12:37:27;1.63;;;1.40;;
74223;SDS011;62585;49.706;18.216;2022-08-07T12:39:55;2.50;;;1.88;;
74223;SDS011;62585;49.706;18.216;2022-08-07T12:42:24;2.78;;;1.85;;
74223;SDS011;62585;49.706;18.216;2022-08-07T12:44:51;2.08;;;1.70;;
74223;SDS011;62585;49.706;18.216;2022-08-07T12:50:36;1.90;;;1.60;;
74223;SDS011;62585;49.706;18.216;2022-08-07T12:58:35;1.88;;;1.40;;
74223;SDS011;62585;49.706;18.216;2022-08-07T13:06:48;3.65;;;1.70;;
74223;SDS011;62585;49.706;18.216;2022-08-07T13:12:09;1.80;;;1.45;;
74223;SDS011;62585;49.706;18.216;2022-08-07T13:17:29;2.20;;;1.63;;
74223;SDS011;62585;49.706;18.216;2022-08-07T13:20:06;1.88;;;1.45;;
74223;SDS011;62585;49.706;18.216;2022-08-07T13:22:36;2.08;;;1.40;;
74223;SDS011;62585;49.706;18.216;2022-08-07T13:25:28;2.15;;;1.65;;
74223;SDS011;62585;49.706;18.216;2022-08-07T13:28:03;2.50;;;1.45;;
74223;SDS011;62585;49.706;18.216;2022-08-07T13:30:34;1.80;;;1.40;;
74223;SDS011;62585;49.706;18.216;2022-08-07T13:33:15;1.98;;;1.25;;
74223;SDS011;62585;49.706;18.216;2022-08-07T13:35:53;4.15;;;1.70;;
74223;SDS011;62585;49.706;18.216;2022-08-07T13:38:28;2.13;;;1.35;;
74223;SDS011;62585;49.706;18.216;2022-08-07T13:43:59;1.83;;;1.50;;
74223;SDS011;62585;49.706;18.216;2022-08-07T13:46:30;1.55;;;1.40;;
74223;SDS011;62585;49.706;18.216;2022-08-07T13:49:00;1.75;;;1.45;;
74223;SDS011;62585;49.706;18.216;2022-08-07T13:51:29;1.88;;;1.50;;
74223;SDS011;62585;49.706;18.216;2022-08-07T13:53:59;1.90;;;1.40;;
74223;SDS011;62585;49.706;18.216;2022-08-07T13:56:31;1.63;;;1.52;;
74223;SDS011;62585;49.706;18.216;2022-08-07T13:58:59;1.90;;;1.50;;
74223;SDS011;62585;49.706;18.216;2022-08-07T14:01:27;2.00;;;1.52;;
74223;SDS011;62585;49.706;18.216;2022-08-07T14:03:59;2.78;;;1.80;;
74223;SDS011;62585;49.706;18.216;2022-08-07T14:06:31;2.38;;;1.80;;
74223;SDS011;62585;49.706;18.216;2022-08-07T14:09:00;2.22;;;1.70;;
74223;SDS011;62585;49.706;18.216;2022-08-07T14:11:28;2.20;;;1.48;;
74223;SDS011;62585;49.706;18.216;2022-08-07T14:13:57;2.10;;;1.70;;
74223;SDS011;62585;49.706;18.216;2022-08-07T14:16:30;2.13;;;1.90;;
74223;SDS011;62585;49.706;18.216;2022-08-07T14:19:00;2.40;;;2.20;;
74223;SDS011;62585;49.706;18.216;2022-08-07T14:21:29;3.35;;;2.45;;
74223;SDS011;62585;49.706;18.216;2022-08-07T14:24:06;2.50;;;2.05;;
74223;SDS011;62585;49.706;18.216;2022-08-07T14:26:38;2.65;;;2.13;;
74223;SDS011;62585;49.706;18.216;2022-08-07T14:29:11;2.70;;;1.90;;
74223;SDS011;62585;49.706;18.216;2022-08-07T14:31:42;2.80;;;1.67;;
74223;SDS011;62585;49.706;18.216;2022-08-07T14:34:10;2.45;;;2.05;;
74223;SDS011;62585;49.706;18.216;2022-08-07T14:36:36;2.60;;;1.80;;
74223;SDS011;62585;49.706;18.216;2022-08-07T14:39:03;2.15;;;1.70;;
74223;SDS011;62585;49.706;18.216;2022-08-07T14:41:30;1.98;;;1.65;;
74223;SDS011;62585;49.706;18.216;2022-08-07T14:43:58;3.42;;;1.80;;
74223;SDS011;62585;49.706;18.216;2022-08-07T14:46:27;1.92;;;1.58;;
74223;SDS011;62585;49.706;18.216;2022-08-07T14:48:54;2.25;;;1.60;;
74223;SDS011;62585;49.706;18.216;2022-08-07T14:51:23;2.90;;;1.92;;
74223;SDS011;62585;49.706;18.216;2022-08-07T14:53:52;1.92;;;1.40;;
74223;SDS011;62585;49.706;18.216;2022-08-07T14:56:20;2.05;;;1.63;;
74223;SDS011;62585;49.706;18.216;2022-08-07T14:58:50;2.95;;;1.65;;
74223;SDS011;62585;49.706;18.216;2022-08-07T15:01:21;3.35;;;1.70;;
74223;SDS011;62585;49.706;18.216;2022-08-07T15:03:49;2.20;;;1.63;;
74223;SDS011;62585;49.706;18.216;2022-08-07T15:06:20;2.65;;;1.52;;
74223;SDS011;62585;49.706;18.216;2022-08-07T15:08:48;2.50;;;2.05;;
74223;SDS011;62585;49.706;18.216;2022-08-07T15:11:17;2.92;;;1.60;;
74223;SDS011;62585;49.706;18.216;2022-08-07T15:13:59;2.35;;;1.85;;
74223;SDS011;62585;49.706;18.216;2022-08-07T15:16:38;1.63;;;1.42;;
74223;SDS011;62585;49.706;18.216;2022-08-07T15:19:17;1.92;;;1.50;;
74223;SDS011;62585;49.706;18.216;2022-08-07T15:21:50;2.10;;;1.52;;
74223;SDS011;62585;49.706;18.216;2022-08-07T15:24:24;2.20;;;1.23;;
74223;SDS011;62585;49.706;18.216;2022-08-07T15:26:56;1.95;;;1.60;;
74223;SDS011;62585;49.706;18.216;2022-08-07T15:29:40;2.15;;;1.73;;
74223;SDS011;62585;49.706;18.216;2022-08-07T15:32:07;1.92;;;1.60;;
74223;SDS011;62585;49.706;18.216;2022-08-07T15:34:39;1.90;;;1.33;;
74223;SDS011;62585;49.706;18.216;2022-08-07T15:37:10;2.15;;;1.65;;
74223;SDS011;62585;49.706;18.216;2022-08-07T15:39:37;1.70;;;1.50;;
74223;SDS011;62585;49.706;18.216;2022-08-07T15:42:04;2.13;;;1.65;;
74223;SDS011;62585;49.706;18.216;2022-08-07T15:44:41;2.47;;;2.00;;
74223;SDS011;62585;49.706;18.216;2022-08-07T15:47:09;1.85;;;1.73;;
74223;SDS011;62585;49.706;18.216;2022-08-07T15:49:37;2.60;;;1.80;;
74223;SDS011;62585;49.706;18.216;2022-08-07T15:52:07;2.22;;;1.60;;
74223;SDS011;62585;49.706;18.216;2022-08-07T15:54:36;1.98;;;1.70;;
74223;SDS011;62585;49.706;18.216;2022-08-07T15:57:04;2.13;;;1.75;;
74223;SDS011;62585;49.706;18.216;2022-08-07T15:59:32;2.58;;;1.90;;
74223;SDS011;62585;49.706;18.216;2022-08-07T16:01:59;3.97;;;1.80;;
74223;SDS011;62585;49.706;18.216;2022-08-07T16:04:27;2.15;;;1.77;;
74223;SDS011;62585;49.706;18.216;2022-08-07T16:06:55;2.30;;;1.90;;
74223;SDS011;62585;49.706;18.216;2022-08-07T16:15:28;2.15;;;1.73;;
74223;SDS011;62585;49.706;18.216;2022-08-07T16:34:01;2.05;;;1.70;;
74223;SDS011;62585;49.706;18.216;2022-08-07T16:36:37;2.83;;;1.80;;
74223;SDS011;62585;49.706;18.216;2022-08-07T16:39:24;2.67;;;1.90;;
74223;SDS011;62585;49.706;18.216;2022-08-07T16:42:16;2.60;;;1.98;;
74223;SDS011;62585;49.706;18.216;2022-08-07T16:50:49;2.40;;;2.13;;
74223;SDS011;62585;49.706;18.216;2022-08-07T16:56:09;3.10;;;2.10;;
74223;SDS011;62585;49.706;18.216;2022-08-07T16:58:54;3.45;;;2.40;;
74223;SDS011;62585;49.706;18.216;2022-08-07T17:06:55;2.25;;;1.75;;
74223;SDS011;62585;49.706;18.216;2022-08-07T17:09:34;2.10;;;1.70;;
74223;SDS011;62585;49.706;18.216;2022-08-07T17:12:15;2.50;;;1.90;;
74223;SDS011;62585;49.706;18.216;2022-08-07T17:14:47;2.47;;;1.83;;
74223;SDS011;62585;49.706;18.216;2022-08-07T17:28:54;3.35;;;1.98;;
74223;SDS011;62585;49.706;18.216;2022-08-07T17:31:24;4.00;;;2.30;;
74223;SDS011;62585;49.706;18.216;2022-08-07T17:36:50;2.90;;;1.92;;
74223;SDS011;62585;49.706;18.216;2022-08-07T17:39:20;3.55;;;2.28;;
74223;SDS011;62585;49.706;18.216;2022-08-07T17:41:58;2.70;;;1.88;;
74223;SDS011;62585;49.706;18.216;2022-08-07T17:44:33;3.58;;;2.00;;
74223;SDS011;62585;49.706;18.216;2022-08-07T17:47:12;2.50;;;2.00;;
74223;SDS011;62585;49.706;18.216;2022-08-07T17:49:53;2.53;;;2.10;;
74223;SDS011;62585;49.706;18.216;2022-08-07T17:52:39;3.50;;;2.08;;
74223;SDS011;62585;49.706;18.216;2022-08-07T17:57:49;3.00;;;1.88;;
74223;SDS011;62585;49.706;18.216;2022-08-07T18:00:28;3.90;;;2.03;;
74223;SDS011;62585;49.706;18.216;2022-08-07T18:02:58;2.10;;;1.90;;
74223;SDS011;62585;49.706;18.216;2022-08-07T18:05:27;3.33;;;1.70;;
74223;SDS011;62585;49.706;18.216;2022-08-07T18:08:12;2.22;;;1.95;;
74223;SDS011;62585;49.706;18.216;2022-08-07T18:16:06;3.47;;;2.13;;
74223;SDS011;62585;49.706;18.216;2022-08-07T18:19:09;2.47;;;1.95;;
74223;SDS011;62585;49.706;18.216;2022-08-07T18:21:37;4.78;;;2.47;;
74223;SDS011;62585;49.706;18.216;2022-08-07T18:24:23;2.88;;;2.20;;
74223;SDS011;62585;49.706;18.216;2022-08-07T18:27:13;3.15;;;2.53;;
74223;SDS011;62585;49.706;18.216;2022-08-07T18:35:12;2.72;;;2.05;;